Time;durP1;ratioP1;P1;durP2;ratioP2;P2;SDS_P1;SDS_P2;PMS_P1;PMS_P2;Temp;Humidity;BMP_temperature;BMP_pressure;BME280_temperature;BME280_humidity;BME280_pressure;Samples;Min_cycle;Max_cycle;Signal;HPM_P1;HPM_P2
2022/06/22 00:02:25;;;;;;;279.57;269.97;;;11.50;99.90;;;;;;4992058;28;20447;-82
2022/06/22 00:05:13;;;;;;;312.30;301.37;;;11.30;99.90;;;;;;4991052;28;20590;-82
2022/06/22 00:07:57;;;;;;;331.53;319.83;;;11.30;99.90;;;;;;4991045;28;20471;-82
2022/06/22 00:10:40;;;;;;;273.10;264.70;;;11.40;99.90;;;;;;4990022;28;20458;-83
2022/06/22 00:13:33;;;;;;;332.13;320.90;;;11.20;99.90;;;;;;4991166;28;21099;-83
2022/06/22 00:16:07;;;;;;;359.03;346.53;;;11.20;99.90;;;;;;4990080;28;20952;-83
2022/06/22 00:19:00;;;;;;;390.53;376.53;;;11.00;99.90;;;;;;4990929;28;21362;-83
2022/06/22 00:21:45;;;;;;;545.63;523.23;;;11.00;99.90;;;;;;4991613;28;20444;-83
2022/06/22 00:24:44;;;;;;;630.03;600.77;;;11.00;99.90;;;;;;4990658;28;21006;-83
2022/06/22 00:27:37;;;;;;;659.93;627.83;;;11.00;99.90;;;;;;4970950;28;20484;-84
2022/06/22 00:30:41;;;;;;;661.50;629.63;;;11.10;99.90;;;;;;4970379;28;20545;-85
2022/06/22 00:33:34;;;;;;;715.43;677.33;;;11.00;99.90;;;;;;4972797;28;20458;-84
2022/06/22 00:39:56;;;;;;;694.07;658.07;;;11.00;99.90;;;;;;4922165;29;20474;-84
2022/06/22 00:46:03;;;;;;;679.70;647.30;;;10.90;99.90;;;;;;4928617;29;20458;-84
2022/06/22 00:49:20;;;;;;;672.77;641.07;;;10.90;99.90;;;;;;4930279;29;20478;-84
2022/06/22 00:52:12;;;;;;;508.60;489.60;;;10.80;99.90;;;;;;4972927;28;20526;-84
2022/06/22 00:59:06;;;;;;;197.73;191.43;;;11.20;99.90;;;;;;4874251;29;20467;-84
2022/06/22 01:17:16;;;;;;;;;;;;;;;;;;;;;
2022/06/22 01:20:13;;;;;;;;;;;;;;;;;;;;;
2022/06/22 01:33:00;;;;;;;679.77;649.67;;;10.70;99.90;;;;;;4914861;29;20458;-83
2022/06/22 01:39:20;;;;;;;741.73;703.37;;;10.60;99.90;;;;;;4913890;29;20471;-84
2022/06/22 01:42:33;;;;;;;756.07;718.20;;;10.40;99.90;;;;;;4910318;29;20467;-85
2022/06/22 01:45:36;;;;;;;809.67;765.17;;;10.40;99.90;;;;;;4894433;29;20459;-83
2022/06/22 01:48:28;;;;;;;818.60;771.23;;;10.20;99.90;;;;;;4956096;28;20552;-84
2022/06/22 01:51:20;;;;;;;840.10;791.03;;;10.00;99.90;;;;;;4983962;28;20450;-84
2022/06/22 01:54:15;;;;;;;882.27;825.97;;;10.10;99.90;;;;;;5007360;28;20446;-84
2022/06/22 01:57:12;;;;;;;854.17;796.97;;;10.00;99.90;;;;;;4999676;28;20455;-84
2022/06/22 02:00:21;;;;;;;839.70;788.03;;;10.20;99.90;;;;;;4989981;28;20475;-83
2022/06/22 02:03:32;;;;;;;;;;;;;;;;;;;;;
2022/06/22 02:23:12;;;;;;;744.53;704.83;;;9.90;99.90;;;;;;4833088;28;20467;-84
2022/06/22 02:30:02;;;;;;;;;;;;;;;;;;;;;
2022/06/22 02:33:13;;;;;;;;;;;;;;;;;;;;;
2022/06/22 02:39:28;;;;;;;782.10;741.00;;;10.30;99.90;;;;;;4932547;29;20480;-84
2022/06/22 02:45:50;;;;;;;840.50;788.70;;;10.10;99.90;;;;;;4913434;29;20468;-84
2022/06/22 02:49:10;;;;;;;;;;;;;;;;;;;;;
2022/06/22 03:11:57;;;;;;;729.47;695.83;;;9.90;99.90;;;;;;4979041;28;20485;-83
2022/06/22 03:14:36;;;;;;;732.13;698.20;;;9.70;99.90;;;;;;5009951;28;20460;-83
2022/06/22 03:17:17;;;;;;;784.37;745.70;;;9.60;99.90;;;;;;5006946;28;20449;-83
2022/06/22 03:23:55;;;;;;;917.17;863.67;;;9.40;99.90;;;;;;4961261;28;20486;-83
2022/06/22 03:26:47;;;;;;;914.23;853.40;;;9.40;99.90;;;;;;5006851;28;20457;-83
2022/06/22 03:29:43;;;;;;;901.60;840.53;;;9.50;99.90;;;;;;4984743;28;21002;-83
2022/06/22 03:32:30;;;;;;;905.00;844.03;;;9.50;99.90;;;;;;5010926;28;20488;-83
2022/06/22 03:35:08;;;;;;;908.13;847.20;;;9.50;99.90;;;;;;5009030;28;20514;-84
2022/06/22 03:41:00;;;;;;;930.17;860.40;;;9.50;99.90;;;;;;5008879;28;20437;-83
2022/06/22 03:44:06;;;;;;;915.47;843.00;;;9.60;99.90;;;;;;5007370;28;20805;-84
2022/06/22 03:46:53;;;;;;;894.47;821.93;;;9.80;99.90;;;;;;5006940;28;20452;-84
2022/06/22 03:49:27;;;;;;;901.23;828.60;;;9.90;99.90;;;;;;5005495;28;20470;-84
2022/06/22 03:52:13;;;;;;;903.33;830.93;;;10.10;99.90;;;;;;4999251;28;20513;-84
2022/06/22 03:54:59;;;;;;;910.60;838.07;;;10.10;99.90;;;;;;4991735;28;20443;-84
2022/06/22 03:57:52;;;;;;;895.10;823.50;;;10.10;99.90;;;;;;5008444;28;20470;-84
2022/06/22 04:00:39;;;;;;;888.30;816.60;;;10.40;99.90;;;;;;4997066;28;20451;-84
2022/06/22 04:03:14;;;;;;;879.40;808.43;;;10.50;99.90;;;;;;5009669;28;20449;-84
2022/06/22 04:06:37;;;;;;;;;;;;;;;;;;;;;
2022/06/22 04:09:51;;;;;;;;;;;;;;;;;;;;;
2022/06/22 04:12:25;;;;;;;849.40;791.40;;;11.10;99.90;;;;;;4971868;28;20483;-85
2022/06/22 04:14:59;;;;;;;843.50;791.57;;;11.10;99.90;;;;;;4976612;28;20459;-85
2022/06/22 04:17:30;;;;;;;842.00;789.70;;;11.20;99.90;;;;;;5004895;28;20473;-83
2022/06/22 04:20:03;;;;;;;838.60;786.47;;;11.30;99.90;;;;;;4997224;28;20466;-83
2022/06/22 04:22:33;;;;;;;840.67;789.67;;;11.30;99.90;;;;;;4984820;28;20951;-82
2022/06/22 04:25:05;;;;;;;848.07;795.27;;;11.40;99.90;;;;;;4984232;28;20452;-82
2022/06/22 04:27:35;;;;;;;827.13;778.10;;;11.40;99.90;;;;;;4994913;28;20470;-84
2022/06/22 04:30:06;;;;;;;758.80;719.13;;;11.50;99.90;;;;;;4983470;28;21061;-83
2022/06/22 04:32:39;;;;;;;778.70;736.90;;;11.60;99.90;;;;;;4981348;28;20455;-84
2022/06/22 04:35:20;;;;;;;766.47;726.73;;;11.60;99.90;;;;;;4981825;28;20470;-82
2022/06/22 04:37:53;;;;;;;766.63;727.90;;;11.60;99.90;;;;;;4981764;28;20472;-83
2022/06/22 04:40:25;;;;;;;773.27;733.50;;;11.60;99.90;;;;;;4980061;28;20458;-80
2022/06/22 04:42:57;;;;;;;815.77;770.67;;;11.60;99.90;;;;;;4991365;28;20454;-80
2022/06/22 04:45:30;;;;;;;808.77;763.27;;;11.60;99.90;;;;;;5001362;28;20458;-82
2022/06/22 04:48:03;;;;;;;794.83;751.63;;;11.60;99.90;;;;;;4998835;28;20515;-82
2022/06/22 04:50:30;;;;;;;793.17;751.37;;;11.70;99.90;;;;;;4981807;28;20545;-82
2022/06/22 04:53:02;;;;;;;822.80;776.80;;;11.80;99.90;;;;;;4980789;28;20491;-81
2022/06/22 04:55:29;;;;;;;823.70;777.17;;;11.80;99.90;;;;;;4981965;28;20487;-83
2022/06/22 04:58:04;;;;;;;860.53;810.13;;;12.00;99.90;;;;;;4991444;28;20452;-83
2022/06/22 05:00:38;;;;;;;846.30;797.33;;;12.10;99.90;;;;;;4998199;28;20460;-82
2022/06/22 05:03:19;;;;;;;815.90;769.73;;;12.30;99.90;;;;;;4990442;28;20488;-84
2022/06/22 05:05:45;;;;;;;795.80;752.13;;;12.50;99.90;;;;;;4977176;28;20449;-82
2022/06/22 05:08:17;;;;;;;797.27;753.17;;;12.70;99.90;;;;;;4984364;28;20485;-82
2022/06/22 05:10:51;;;;;;;784.07;739.67;;;12.80;99.90;;;;;;4996440;28;20454;-81
2022/06/22 05:13:21;;;;;;;777.07;734.00;;;12.90;99.90;;;;;;4985653;28;21020;-82
2022/06/22 05:15:54;;;;;;;753.73;712.13;;;13.10;99.90;;;;;;4977280;28;20458;-82
2022/06/22 05:18:24;;;;;;;657.10;623.87;;;13.20;99.90;;;;;;4986689;28;20541;-82
2022/06/22 05:20:56;;;;;;;483.30;459.60;;;13.50;99.90;;;;;;4996447;28;20544;-82
2022/06/22 05:23:26;;;;;;;284.10;272.77;;;13.80;99.90;;;;;;4986464;28;20454;-82
2022/06/22 05:25:56;;;;;;;76.23;72.83;;;14.20;99.90;;;;;;4977100;28;20550;-82
2022/06/22 05:28:33;;;;;;;22.40;20.60;;;14.60;99.90;;;;;;4985613;28;20572;-82
2022/06/22 05:31:06;;;;;;;13.77;11.40;;;14.80;99.90;;;;;;4996234;28;20501;-81
2022/06/22 05:33:36;;;;;;;15.60;11.20;;;14.80;99.90;;;;;;4985063;28;20460;-82
2022/06/22 05:36:14;;;;;;;17.00;9.00;;;15.10;99.90;;;;;;4977199;28;20461;-81
2022/06/22 05:38:48;;;;;;;10.63;7.37;;;15.60;98.10;;;;;;4986552;28;20468;-82
2022/06/22 05:41:20;;;;;;;9.67;6.17;;;15.90;94.50;;;;;;4982417;28;20533;-81
2022/06/22 05:43:58;;;;;;;9.87;6.10;;;16.30;91.00;;;;;;4978310;28;20458;-81
2022/06/22 05:46:30;;;;;;;12.30;5.77;;;16.80;88.50;;;;;;4977843;28;20459;-81
2022/06/22 05:49:18;;;;;;;9.17;5.40;;;17.10;81.60;;;;;;4989085;28;20479;-82
2022/06/22 05:52:03;;;;;;;10.00;6.07;;;17.40;74.10;;;;;;4997860;28;20468;-82
2022/06/22 05:54:45;;;;;;;12.77;5.60;;;17.50;73.30;;;;;;4991639;28;20460;-82
2022/06/22 05:57:21;;;;;;;8.70;5.63;;;17.40;74.00;;;;;;4972727;28;20849;-82
2022/06/22 06:00:23;;;;;;;11.60;5.97;;;17.40;74.70;;;;;;4989109;28;20471;-82
2022/06/22 06:03:03;;;;;;;10.50;6.10;;;17.50;73.00;;;;;;4997609;28;21038;-81
2022/06/22 06:05:48;;;;;;;8.50;5.10;;;17.70;71.70;;;;;;4995639;28;20455;-83
2022/06/22 06:08:25;;;;;;;14.73;5.60;;;17.90;68.20;;;;;;4984168;28;20505;-84
2022/06/22 06:10:54;;;;;;;11.10;5.10;;;18.20;66.80;;;;;;4984734;28;20525;-82
2022/06/22 06:13:26;;;;;;;15.43;6.20;;;18.50;67.30;;;;;;4990620;28;20555;-82
2022/06/22 06:15:59;;;;;;;10.13;4.87;;;18.40;63.00;;;;;;4995882;28;20484;-82
2022/06/22 06:18:44;;;;;;;8.50;5.40;;;18.50;64.60;;;;;;4998451;28;20471;-81
2022/06/22 06:21:32;;;;;;;9.90;5.27;;;18.70;65.40;;;;;;4988306;28;20516;-82
2022/06/22 06:24:03;;;;;;;10.80;4.87;;;18.60;62.50;;;;;;5014559;23;20497;-81
2022/06/22 06:29:27;;;;;;;10.37;5.17;;;18.60;62.60;;;;;;4974080;28;20491;-80
2022/06/22 06:32:06;;;;;;;9.87;4.30;;;19.10;58.10;;;;;;4988614;28;20458;-81
2022/06/22 06:34:40;;;;;;;9.63;5.10;;;19.30;57.50;;;;;;4972979;28;20472;-82
2022/06/22 06:37:13;;;;;;;7.73;4.60;;;19.70;57.30;;;;;;4971082;28;20460;-82
2022/06/22 06:39:45;;;;;;;6.73;4.33;;;20.20;52.40;;;;;;4969135;28;20452;-80
2022/06/22 06:42:26;;;;;;;8.30;4.73;;;20.40;47.50;;;;;;4971122;28;20455;-82
2022/06/22 06:44:54;;;;;;;10.00;5.27;;;20.30;44.60;;;;;;4969982;29;20510;-82
2022/06/22 06:47:26;;;;;;;8.80;4.03;;;20.30;44.60;;;;;;4971425;28;20460;-82
2022/06/22 06:50:00;;;;;;;10.67;4.90;;;20.40;44.70;;;;;;4970478;28;20484;-82
2022/06/22 06:52:35;;;;;;;6.80;3.70;;;20.60;44.90;;;;;;4970480;28;20840;-81
2022/06/22 06:55:10;;;;;;;7.97;4.00;;;21.20;42.50;;;;;;4970813;29;20456;-83
2022/06/22 06:57:41;;;;;;;12.97;5.00;;;21.30;41.10;;;;;;4971811;29;20954;-82
2022/06/22 07:00:13;;;;;;;7.17;3.73;;;21.20;36.40;;;;;;4965300;29;20442;-82
2022/06/22 07:02:42;;;;;;;7.40;3.53;;;21.40;36.60;;;;;;4970597;29;20472;-83
2022/06/22 07:05:18;;;;;;;12.83;4.67;;;21.80;35.00;;;;;;4965574;28;20466;-78
2022/06/22 07:07:49;;;;;;;8.93;4.00;;;22.10;31.80;;;;;;4956687;28;21047;-81
2022/06/22 07:10:21;;;;;;;8.53;4.07;;;22.40;28.50;;;;;;4955264;28;20455;-81
2022/06/22 07:12:52;;;;;;;8.30;3.80;;;23.00;29.20;;;;;;4937930;29;20487;-81
2022/06/22 07:15:23;;;;;;;8.83;3.30;;;23.00;25.00;;;;;;4949210;29;20463;-81
2022/06/22 07:17:55;;;;;;;11.50;4.20;;;23.30;23.60;;;;;;4956651;28;20813;-80
2022/06/22 07:20:26;;;;;;;7.87;3.10;;;23.70;24.60;;;;;;4934501;29;20435;-81
2022/06/22 07:23:00;;;;;;;10.33;3.80;;;23.90;22.50;;;;;;4936845;29;20514;-82
2022/06/22 07:25:33;;;;;;;9.27;3.00;;;24.10;19.40;;;;;;4954856;29;20463;-83
2022/06/22 07:28:06;;;;;;;12.43;3.60;;;24.20;19.70;;;;;;4956142;29;20467;-84
2022/06/22 07:30:35;;;;;;;8.47;2.60;;;24.60;18.40;;;;;;4939323;29;20878;-83
2022/06/22 07:33:10;;;;;;;9.13;3.33;;;24.90;15.80;;;;;;4956136;29;20471;-83
2022/06/22 07:35:42;;;;;;;8.00;2.90;;;25.00;14.70;;;;;;4956745;28;21057;-83
2022/06/22 07:38:23;;;;;;;9.90;3.00;;;25.20;14.10;;;;;;4954181;29;20448;-82
2022/06/22 07:43:35;;;;;;;7.47;3.17;;;25.40;13.60;;;;;;4957119;29;20449;-86
2022/06/22 07:46:02;;;;;;;8.03;3.13;;;25.30;10.50;;;;;;4959267;28;20462;-83
2022/06/22 07:48:34;;;;;;;10.00;3.13;;;25.40;11.10;;;;;;4963223;28;20483;-83
2022/06/22 07:51:08;;;;;;;6.23;3.10;;;25.30;9.20;;;;;;4963335;29;20953;-83
2022/06/22 07:53:39;;;;;;;7.80;3.17;;;25.30;13.10;;;;;;4963593;28;20482;-83
2022/06/22 07:56:14;;;;;;;7.37;4.10;;;25.80;10.70;;;;;;4963937;29;20468;-83
2022/06/22 07:58:46;;;;;;;9.33;3.60;;;26.20;9.40;;;;;;4962691;29;20527;-83
2022/06/22 08:01:15;;;;;;;8.50;3.80;;;26.40;9.10;;;;;;4962940;29;20458;-83
2022/06/22 08:03:45;;;;;;;8.50;3.70;;;27.20;8.20;;;;;;4963937;28;20482;-83
2022/06/22 08:06:20;;;;;;;10.47;3.90;;;27.20;7.30;;;;;;4963770;29;20465;-83
2022/06/22 08:08:53;;;;;;;10.50;4.37;;;27.00;10.50;;;;;;4962226;29;20475;-83
2022/06/22 08:11:25;;;;;;;8.53;3.37;;;27.20;8.00;;;;;;4962969;29;20451;-83
2022/06/22 08:13:54;;;;;;;6.60;3.80;;;26.70;3.00;;;;;;4963128;28;20498;-83
2022/06/22 08:16:26;;;;;;;9.20;3.70;;;26.70;4.90;;;;;;4963176;29;20455;-83
2022/06/22 08:18:52;;;;;;;11.80;3.13;;;26.40;5.40;;;;;;4963189;28;20455;-83
2022/06/22 08:21:21;;;;;;;8.37;3.93;;;26.70;4.80;;;;;;4963257;29;20835;-83
2022/06/22 08:23:48;;;;;;;12.67;3.90;;;26.70;5.70;;;;;;4962949;28;20491;-83
2022/06/22 08:26:21;;;;;;;8.97;3.83;;;26.40;6.20;;;;;;4962327;29;20460;-83
2022/06/22 08:28:50;;;;;;;9.53;3.87;;;26.50;5.90;;;;;;4961941;29;20490;-83
2022/06/22 08:31:17;;;;;;;8.17;3.07;;;26.50;7.30;;;;;;4963049;29;20463;-83
2022/06/22 08:33:47;;;;;;;7.67;2.90;;;26.80;5.00;;;;;;4963208;28;20492;-83
2022/06/22 08:36:20;;;;;;;7.27;2.70;;;27.10;1.40;;;;;;4962376;29;20945;-83
2022/06/22 08:38:54;;;;;;;5.20;2.53;;;27.30;1.50;;;;;;4963113;29;20808;-83
2022/06/22 08:41:34;;;;;;;7.63;3.10;;;27.40;3.70;;;;;;4963420;29;20465;-83
2022/06/22 08:44:10;;;;;;;11.20;3.10;;;28.00;1.00;;;;;;4963928;28;20495;-83
2022/06/22 08:47:02;;;;;;;7.37;2.70;;;28.30;1.00;;;;;;4963507;29;20831;-83
2022/06/22 08:49:49;;;;;;;7.63;3.10;;;28.90;1.00;;;;;;4952662;28;20491;-83
2022/06/22 08:52:34;;;;;;;9.67;2.50;;;28.20;1.00;;;;;;4963294;29;20482;-83
2022/06/22 08:55:15;;;;;;;8.03;3.40;;;28.30;1.00;;;;;;4963557;29;20844;-83
2022/06/22 08:57:59;;;;;;;8.87;3.23;;;28.30;1.00;;;;;;4962491;28;20430;-83
2022/06/22 09:00:34;;;;;;;7.17;2.20;;;28.40;1.00;;;;;;4962019;29;20459;-83
2022/06/22 09:03:38;;;;;;;9.20;3.47;;;28.50;1.00;;;;;;4963950;28;20475;-83
2022/06/22 09:06:31;;;;;;;7.00;3.00;;;28.70;1.00;;;;;;4974883;29;20467;-82
2022/06/22 09:09:20;;;;;;;7.10;2.40;;;29.00;1.00;;;;;;4974646;29;20483;-83
2022/06/22 09:12:02;;;;;;;8.73;2.67;;;29.40;1.00;;;;;;4974865;29;20899;-82
2022/06/22 09:14:53;;;;;;;8.53;2.93;;;29.80;1.00;;;;;;4969769;28;20446;-83
2022/06/22 09:17:30;;;;;;;7.10;2.73;;;30.00;1.00;;;;;;4961721;29;20961;-83
2022/06/22 09:20:13;;;;;;;9.13;3.40;;;29.20;1.00;;;;;;4961092;29;20443;-83
2022/06/22 09:22:54;;;;;;;9.53;2.70;;;29.40;1.00;;;;;;4961953;28;20471;-83
2022/06/22 09:25:28;;;;;;;6.03;2.33;;;28.90;1.00;;;;;;4962452;29;20426;-83
2022/06/22 09:28:03;;;;;;;8.10;3.03;;;29.30;1.00;;;;;;4962359;29;20456;-83
2022/06/22 09:30:45;;;;;;;10.20;2.97;;;29.70;1.00;;;;;;4961810;28;20428;-83
2022/06/22 09:33:47;;;;;;;7.17;2.10;;;29.70;1.00;;;;;;4961099;28;20479;-83
2022/06/22 09:36:56;;;;;;;10.27;2.70;;;29.40;1.00;;;;;;4938161;28;21030;-85
2022/06/22 09:39:58;;;;;;;7.20;3.10;;;28.70;1.00;;;;;;4949999;29;20866;-86
2022/06/22 09:43:05;;;;;;;8.20;2.90;;;29.20;1.00;;;;;;4936633;29;20463;-85
2022/06/22 09:45:53;;;;;;;5.93;2.70;;;29.30;1.00;;;;;;4937043;29;20827;-87
2022/06/22 09:48:59;;;;;;;6.60;2.40;;;29.70;1.00;;;;;;4941942;29;20430;-85
2022/06/22 09:51:51;;;;;;;10.20;3.13;;;29.30;1.00;;;;;;4956761;28;20482;-86
2022/06/22 09:57:53;;;;;;;5.85;2.30;;;30.10;1.00;;;;;;4957716;29;20450;-85
2022/06/22 10:00:26;;;;;;;7.53;3.00;;;29.30;1.00;;;;;;4955955;28;20192;-85
2022/06/22 10:03:30;;;;;;;5.90;2.83;;;29.90;1.00;;;;;;4954436;28;20486;-85
2022/06/22 10:06:27;;;;;;;7.63;2.53;;;30.40;1.00;;;;;;4954183;29;20459;-86
2022/06/22 10:09:18;;;;;;;6.77;2.43;;;31.40;1.00;;;;;;4954174;28;20484;-84
2022/06/22 10:11:52;;;;;;;8.13;2.20;;;32.00;1.00;;;;;;4954456;28;20441;-85
2022/06/22 10:14:52;;;;;;;6.77;2.40;;;32.50;1.00;;;;;;4956999;28;20480;-84
2022/06/22 10:17:33;;;;;;;6.00;2.13;;;31.90;1.00;;;;;;4956407;29;20433;-85
2022/06/22 10:20:17;;;;;;;5.33;2.17;;;32.00;1.00;;;;;;4955753;28;20458;-85
2022/06/22 10:23:00;;;;;;;5.43;2.57;;;31.80;1.00;;;;;;4956472;28;20458;-85
2022/06/22 10:25:48;;;;;;;5.30;2.50;;;31.60;1.00;;;;;;4956303;29;20809;-84
2022/06/22 10:28:36;;;;;;;5.30;2.30;;;31.70;1.00;;;;;;4960653;28;20960;-85
2022/06/22 10:31:08;;;;;;;7.00;2.80;;;32.20;1.00;;;;;;4965273;28;20494;-83
2022/06/22 10:33:52;;;;;;;5.80;2.43;;;31.90;1.00;;;;;;4962978;28;20879;-84
2022/06/22 10:36:47;;;;;;;7.80;2.57;;;31.70;1.00;;;;;;4962010;29;20426;-84
2022/06/22 10:40:02;;;;;;;6.10;2.57;;;32.00;1.00;;;;;;4962764;29;20433;-86
2022/06/22 10:45:41;;;;;;;6.40;2.27;;;33.50;1.00;;;;;;4962685;29;20442;-86
2022/06/22 10:48:39;;;;;;;6.10;2.50;;;34.20;1.00;;;;;;4962884;28;20455;-82
2022/06/22 10:51:19;;;;;;;6.57;2.50;;;34.90;1.00;;;;;;4943814;29;20981;-85
2022/06/22 10:54:19;;;;;;;6.23;2.30;;;35.30;1.00;;;;;;4961382;28;20506;-84
2022/06/22 10:57:17;;;;;;;6.00;2.50;;;34.70;1.00;;;;;;4952328;28;20446;-85
2022/06/22 11:00:09;;;;;;;7.20;2.63;;;34.20;1.00;;;;;;4961457;28;20455;-86
2022/06/22 11:03:16;;;;;;;6.15;2.20;;;34.60;1.00;;;;;;4961325;28;20825;-85
2022/06/22 11:06:19;;;;;;;7.10;2.03;;;34.60;1.00;;;;;;4964924;28;20251;-85
2022/06/22 11:09:20;;;;;;;4.83;2.03;;;35.20;1.00;;;;;;4962252;29;20454;-86
2022/06/22 11:12:04;;;;;;;6.27;2.27;;;35.40;1.00;;;;;;4962953;29;20965;-85
2022/06/22 11:14:50;;;;;;;5.50;2.00;;;35.70;1.00;;;;;;4965122;28;20455;-86
2022/06/22 11:17:26;;;;;;;6.83;2.70;;;35.30;1.00;;;;;;4964546;28;20452;-85
2022/06/22 11:20:27;;;;;;;8.93;2.90;;;33.70;1.00;;;;;;4964510;28;20940;-86
2022/06/22 11:23:00;;;;;;;7.93;2.33;;;33.30;1.00;;;;;;4934107;28;20484;-86
2022/06/22 11:32:00;;;;;;;5.70;1.70;;;31.90;1.00;;;;;;4961376;29;20474;-86
2022/06/22 11:35:06;;;;;;;8.60;2.50;;;31.30;1.00;;;;;;4966251;28;20478;-86
2022/06/22 11:37:46;;;;;;;6.43;2.27;;;31.80;1.00;;;;;;4960927;28;21175;-85
2022/06/22 11:40:44;;;;;;;5.60;2.30;;;32.40;1.00;;;;;;4961651;29;20999;-85
2022/06/22 11:43:37;;;;;;;6.13;2.13;;;33.10;1.00;;;;;;4946929;29;20447;-86
2022/06/22 11:46:14;;;;;;;15.33;2.40;;;32.80;1.00;;;;;;4958774;29;20451;-86
2022/06/22 11:49:00;;;;;;;5.00;2.03;;;34.00;1.00;;;;;;4964824;28;20433;-84
2022/06/22 11:51:45;;;;;;;5.30;2.60;;;33.50;1.00;;;;;;4964854;28;20436;-85
2022/06/22 11:54:49;;;;;;;5.63;2.63;;;33.40;1.00;;;;;;4963839;28;20475;-85
2022/06/22 11:57:35;;;;;;;8.33;2.60;;;33.50;1.00;;;;;;4961389;28;20455;-85
2022/06/22 12:00:16;;;;;;;5.90;2.23;;;33.00;1.00;;;;;;4963355;28;20452;-85
2022/06/22 12:03:10;;;;;;;6.53;2.03;;;33.20;1.00;;;;;;4963902;28;20467;-85
2022/06/22 12:05:55;;;;;;;7.27;2.50;;;33.50;1.00;;;;;;4964514;28;20459;-86
2022/06/22 12:08:48;;;;;;;10.70;2.20;;;33.00;1.00;;;;;;4964710;28;20418;-87
2022/06/22 12:11:22;;;;;;;4.67;2.20;;;33.00;1.00;;;;;;4965846;28;20474;-86
2022/06/22 12:17:08;;;;;;;5.13;1.87;;;32.70;1.00;;;;;;4966031;29;20463;-86
2022/06/22 12:19:42;;;;;;;10.00;2.57;;;32.50;1.00;;;;;;4964344;28;20447;-86
2022/06/22 12:22:18;;;;;;;7.87;2.00;;;32.40;1.00;;;;;;4964578;28;20431;-87
2022/06/22 12:24:58;;;;;;;5.27;2.03;;;33.70;1.00;;;;;;4998541;23;20483;-84
2022/06/22 12:27:29;;;;;;;10.40;2.17;;;34.10;1.00;;;;;;4979101;28;20429;-83
2022/06/22 12:30:19;;;;;;;5.27;1.93;;;33.70;1.00;;;;;;4980235;28;20482;-82
2022/06/22 12:32:51;;;;;;;5.93;2.50;;;34.00;1.00;;;;;;4978957;28;20414;-82
2022/06/22 12:35:27;;;;;;;9.27;2.27;;;33.50;1.00;;;;;;4998144;28;20432;-83
2022/06/22 12:37:58;;;;;;;7.03;2.80;;;34.20;1.00;;;;;;4996179;28;20462;-82
2022/06/22 12:40:30;;;;;;;6.03;2.07;;;34.00;1.00;;;;;;4998298;28;20465;-81
2022/06/22 12:43:12;;;;;;;4.87;1.97;;;33.60;1.00;;;;;;5000431;28;20958;-82
2022/06/22 12:45:53;;;;;;;4.60;2.10;;;33.50;1.00;;;;;;5000344;28;20457;-83
2022/06/22 12:48:44;;;;;;;6.57;2.20;;;33.50;1.00;;;;;;4997639;28;20454;-82
2022/06/22 12:51:23;;;;;;;6.70;2.07;;;34.00;1.00;;;;;;4998710;28;20464;-82
2022/06/22 12:53:54;;;;;;;6.67;2.60;;;34.60;1.00;;;;;;4999215;28;20541;-83
2022/06/22 12:56:25;;;;;;;5.13;2.10;;;36.40;1.00;;;;;;4999408;28;20439;-82
2022/06/22 12:58:58;;;;;;;5.37;2.07;;;37.10;1.00;;;;;;4998250;28;20839;-83
2022/06/22 13:01:26;;;;;;;5.33;1.73;;;37.50;1.00;;;;;;4999509;28;20461;-83
2022/06/22 13:03:56;;;;;;;5.37;1.57;;;36.40;1.00;;;;;;4998948;28;20477;-83
2022/06/22 13:06:25;;;;;;;5.53;2.10;;;36.50;1.00;;;;;;4999680;28;20435;-83
2022/06/22 13:08:53;;;;;;;7.70;2.13;;;37.20;1.00;;;;;;4998882;28;20429;-83
2022/06/22 13:11:23;;;;;;;7.00;2.13;;;38.30;1.00;;;;;;4999480;28;20484;-83
2022/06/22 13:14:00;;;;;;;7.47;1.90;;;37.70;1.00;;;;;;4999899;28;20475;-83
2022/06/22 13:16:33;;;;;;;4.90;1.43;;;36.20;1.00;;;;;;4999825;28;20416;-83
2022/06/22 13:19:08;;;;;;;5.50;2.10;;;35.10;1.00;;;;;;4998424;28;20432;-83
2022/06/22 13:21:48;;;;;;;6.30;1.70;;;34.10;1.00;;;;;;4999401;28;20461;-82
2022/06/22 13:24:34;;;;;;;7.50;1.97;;;33.40;1.00;;;;;;4999502;28;20502;-83
2022/06/22 13:27:17;;;;;;;6.40;2.20;;;35.00;1.00;;;;;;5000122;28;20929;-83
2022/06/22 13:29:49;;;;;;;5.90;2.03;;;35.60;1.00;;;;;;4999159;28;20455;-83
2022/06/22 13:32:18;;;;;;;4.63;2.00;;;35.70;1.00;;;;;;4999420;28;20465;-83
2022/06/22 13:34:50;;;;;;;6.97;1.97;;;36.20;1.00;;;;;;4998886;28;20565;-83
2022/06/22 13:37:27;;;;;;;4.67;1.90;;;34.90;1.00;;;;;;4997617;28;20428;-83
2022/06/22 13:40:07;;;;;;;5.13;1.97;;;34.90;1.00;;;;;;4997221;28;20499;-83
2022/06/22 13:43:08;;;;;;;4.77;2.00;;;34.90;1.00;;;;;;4998157;28;20432;-84
2022/06/22 13:45:55;;;;;;;5.20;1.97;;;35.10;1.00;;;;;;4994731;28;20412;-85
2022/06/22 13:48:29;;;;;;;5.53;1.80;;;35.40;1.00;;;;;;4994997;28;20432;-82
2022/06/22 13:51:34;;;;;;;5.20;1.67;;;35.10;1.00;;;;;;4995897;28;20873;-82
2022/06/22 13:54:48;;;;;;;5.53;1.90;;;34.80;1.00;;;;;;4994156;28;20913;-83
2022/06/22 13:57:23;;;;;;;7.00;2.03;;;34.10;1.00;;;;;;4997134;28;20434;-82
2022/06/22 13:59:55;;;;;;;5.63;1.80;;;34.00;1.00;;;;;;4996484;28;20419;-82
2022/06/22 14:02:48;;;;;;;4.50;1.40;;;34.80;1.00;;;;;;4996447;28;20967;-82
2022/06/22 14:05:23;;;;;;;7.93;1.87;;;35.40;1.00;;;;;;4998294;28;20816;-82
2022/06/22 14:07:57;;;;;;;6.13;1.50;;;35.80;1.00;;;;;;4998431;28;20423;-82
2022/06/22 14:10:28;;;;;;;4.90;1.60;;;35.50;1.00;;;;;;4997337;28;20460;-83
2022/06/22 14:13:06;;;;;;;4.77;1.87;;;34.80;1.00;;;;;;4998385;28;20457;-82
2022/06/22 14:15:42;;;;;;;9.37;2.40;;;34.20;1.00;;;;;;4998252;28;20464;-82
2022/06/22 14:18:18;;;;;;;5.80;2.07;;;33.70;1.00;;;;;;4997237;28;20432;-80
2022/06/22 14:21:06;;;;;;;5.50;2.00;;;35.60;1.00;;;;;;4998670;28;20424;-83
2022/06/22 14:23:36;;;;;;;4.80;2.50;;;36.20;1.00;;;;;;4997684;28;20460;-83
2022/06/22 14:26:37;;;;;;;6.63;2.15;;;35.40;1.00;;;;;;4987766;28;20451;-89
2022/06/22 14:29:13;;;;;;;6.40;2.50;;;36.90;1.00;;;;;;4987510;28;20210;-89
2022/06/22 14:31:49;;;;;;;5.13;2.00;;;37.30;1.00;;;;;;4974931;28;20497;-88
2022/06/22 14:34:31;;;;;;;7.27;1.73;;;37.60;1.00;;;;;;4979409;28;20447;-89
2022/06/22 14:37:07;;;;;;;5.80;2.23;;;36.40;1.00;;;;;;4992739;28;20504;-88
2022/06/22 14:39:40;;;;;;;5.83;1.83;;;35.90;1.00;;;;;;4989553;28;20432;-90
2022/06/22 14:42:16;;;;;;;5.17;2.00;;;36.90;1.00;;;;;;4993507;28;20491;-90
2022/06/22 14:44:51;;;;;;;5.03;1.80;;;37.50;1.00;;;;;;4986957;28;20449;-89
2022/06/22 14:47:23;;;;;;;4.30;1.60;;;36.00;1.00;;;;;;4973412;28;20433;-89
2022/06/22 14:50:00;;;;;;;10.10;2.40;;;35.00;1.00;;;;;;4970699;28;20447;-88
2022/06/22 14:52:38;;;;;;;4.70;1.80;;;35.30;1.00;;;;;;4977220;28;20486;-87
2022/06/22 14:55:11;;;;;;;4.47;1.50;;;34.80;1.00;;;;;;4981713;28;20452;-88
2022/06/22 14:57:44;;;;;;;5.00;2.33;;;34.50;1.00;;;;;;4990214;28;20926;-89
2022/06/22 15:00:28;;;;;;;5.43;1.70;;;34.40;1.00;;;;;;4977522;28;20449;-89
2022/06/22 15:03:05;;;;;;;4.50;1.77;;;35.60;1.00;;;;;;4977133;28;20425;-88
2022/06/22 15:05:37;;;;;;;6.03;2.10;;;35.70;1.00;;;;;;4977361;28;20436;-89
2022/06/22 15:08:14;;;;;;;4.50;1.70;;;36.90;1.00;;;;;;4978029;28;20433;-88
2022/06/22 15:10:45;;;;;;;4.57;1.70;;;35.30;1.00;;;;;;4987266;28;20528;-87
2022/06/22 15:13:18;;;;;;;6.07;1.80;;;35.50;1.00;;;;;;4977155;28;20457;-89
2022/06/22 15:15:52;;;;;;;6.30;1.90;;;34.10;1.00;;;;;;4977656;28;20453;-88
2022/06/22 15:18:35;;;;;;;8.30;1.83;;;33.90;1.00;;;;;;4979013;28;20431;-87
2022/06/22 15:21:09;;;;;;;6.53;1.87;;;33.80;1.00;;;;;;4987109;28;20463;-88
2022/06/22 15:23:41;;;;;;;4.40;1.80;;;34.50;1.00;;;;;;4976754;28;20461;-89
2022/06/22 15:26:15;;;;;;;4.47;1.93;;;34.10;1.00;;;;;;4977008;28;20505;-87
2022/06/22 15:28:52;;;;;;;11.17;2.03;;;33.90;1.00;;;;;;4976696;28;20455;-88
2022/06/22 15:31:32;;;;;;;7.10;2.30;;;33.80;1.00;;;;;;4976913;28;20506;-88
2022/06/22 15:34:14;;;;;;;5.50;2.30;;;34.50;1.00;;;;;;4978933;28;20846;-88
2022/06/22 15:36:46;;;;;;;4.73;1.87;;;34.90;1.00;;;;;;4982967;28;20968;-88
2022/06/22 15:39:24;;;;;;;4.60;1.80;;;34.20;1.00;;;;;;4992543;28;20439;-87
2022/06/22 15:41:58;;;;;;;5.40;1.90;;;34.40;1.00;;;;;;4993066;28;20453;-87
2022/06/22 15:44:29;;;;;;;8.23;1.83;;;34.40;1.00;;;;;;4990163;28;20538;-87
2022/06/22 15:47:00;;;;;;;7.60;1.70;;;34.10;1.00;;;;;;4990665;28;20826;-87
2022/06/22 15:49:33;;;;;;;5.00;1.90;;;34.90;1.00;;;;;;4977506;28;20451;-87
2022/06/22 15:52:07;;;;;;;4.37;1.53;;;35.40;1.00;;;;;;4994622;28;20424;-87
2022/06/22 15:54:55;;;;;;;4.93;2.23;;;35.10;1.00;;;;;;4983408;28;20477;-86
2022/06/22 15:57:27;;;;;;;5.63;1.90;;;36.10;1.00;;;;;;4980333;28;20470;-86
2022/06/22 16:00:05;;;;;;;5.17;1.80;;;36.60;1.00;;;;;;4988781;28;20958;-87